sensor_id;sensor_type;location;lat;lon;timestamp;P1;durP1;ratioP1;P2;durP2;ratioP2
45784;SDS011;31489;51.404;5.474;2024-01-15T00:01:49;31.15;;;15.07;;
45784;SDS011;31489;51.404;5.474;2024-01-15T00:04:33;34.58;;;16.83;;
45784;SDS011;31489;51.404;5.474;2024-01-15T00:07:29;32.00;;;15.02;;
45784;SDS011;31489;51.404;5.474;2024-01-15T00:10:13;30.33;;;15.20;;
45784;SDS011;31489;51.404;5.474;2024-01-15T00:13:12;26.48;;;14.63;;
45784;SDS011;31489;51.404;5.474;2024-01-15T00:15:37;28.65;;;15.38;;
45784;SDS011;31489;51.404;5.474;2024-01-15T00:18:06;28.42;;;14.52;;
45784;SDS011;31489;51.404;5.474;2024-01-15T00:20:32;27.15;;;13.40;;
45784;SDS011;31489;51.404;5.474;2024-01-15T00:22:59;21.45;;;12.65;;
45784;SDS011;31489;51.404;5.474;2024-01-15T00:25:25;23.38;;;12.38;;
45784;SDS011;31489;51.404;5.474;2024-01-15T00:27:51;20.33;;;11.80;;
45784;SDS011;31489;51.404;5.474;2024-01-15T00:30:22;25.23;;;10.63;;
45784;SDS011;31489;51.404;5.474;2024-01-15T00:32:57;21.92;;;9.50;;
45784;SDS011;31489;51.404;5.474;2024-01-15T00:35:26;22.23;;;9.65;;
45784;SDS011;31489;51.404;5.474;2024-01-15T00:37:52;16.17;;;8.57;;
45784;SDS011;31489;51.404;5.474;2024-01-15T00:40:32;16.42;;;8.25;;
45784;SDS011;31489;51.404;5.474;2024-01-15T00:43:14;14.40;;;7.55;;
45784;SDS011;31489;51.404;5.474;2024-01-15T00:45:44;13.82;;;6.55;;
45784;SDS011;31489;51.404;5.474;2024-01-15T00:48:13;12.40;;;6.28;;
45784;SDS011;31489;51.404;5.474;2024-01-15T00:50:51;11.43;;;5.78;;
45784;SDS011;31489;51.404;5.474;2024-01-15T00:53:20;9.70;;;5.32;;
45784;SDS011;31489;51.404;5.474;2024-01-15T00:55:47;10.82;;;4.50;;
45784;SDS011;31489;51.404;5.474;2024-01-15T00:58:16;9.48;;;4.40;;
45784;SDS011;31489;51.404;5.474;2024-01-15T01:00:42;8.57;;;3.85;;
45784;SDS011;31489;51.404;5.474;2024-01-15T01:03:08;5.72;;;3.50;;
45784;SDS011;31489;51.404;5.474;2024-01-15T01:05:39;11.02;;;3.45;;
45784;SDS011;31489;51.404;5.474;2024-01-15T01:08:04;6.43;;;3.13;;
45784;SDS011;31489;51.404;5.474;2024-01-15T01:10:30;3.67;;;2.22;;
45784;SDS011;31489;51.404;5.474;2024-01-15T01:12:56;6.57;;;3.22;;
45784;SDS011;31489;51.404;5.474;2024-01-15T01:15:22;3.80;;;2.42;;
45784;SDS011;31489;51.404;5.474;2024-01-15T01:17:49;4.43;;;2.40;;
45784;SDS011;31489;51.404;5.474;2024-01-15T01:20:15;8.25;;;3.35;;
45784;SDS011;31489;51.404;5.474;2024-01-15T01:22:41;7.80;;;3.20;;
45784;SDS011;31489;51.404;5.474;2024-01-15T01:25:07;9.60;;;3.88;;
45784;SDS011;31489;51.404;5.474;2024-01-15T01:27:33;8.50;;;4.60;;
45784;SDS011;31489;51.404;5.474;2024-01-15T01:30:02;7.38;;;4.50;;
45784;SDS011;31489;51.404;5.474;2024-01-15T01:32:28;9.27;;;5.10;;
45784;SDS011;31489;51.404;5.474;2024-01-15T01:34:54;10.18;;;5.70;;
45784;SDS011;31489;51.404;5.474;2024-01-15T01:37:27;9.95;;;5.95;;
45784;SDS011;31489;51.404;5.474;2024-01-15T01:39:53;10.95;;;5.88;;
45784;SDS011;31489;51.404;5.474;2024-01-15T01:42:28;12.68;;;5.93;;
45784;SDS011;31489;51.404;5.474;2024-01-15T01:44:54;15.18;;;6.20;;
45784;SDS011;31489;51.404;5.474;2024-01-15T01:47:20;9.70;;;5.55;;
45784;SDS011;31489;51.404;5.474;2024-01-15T01:49:46;10.35;;;6.13;;
45784;SDS011;31489;51.404;5.474;2024-01-15T01:52:12;12.57;;;6.60;;
45784;SDS011;31489;51.404;5.474;2024-01-15T01:54:40;12.98;;;5.45;;
45784;SDS011;31489;51.404;5.474;2024-01-15T01:57:10;14.30;;;6.03;;
45784;SDS011;31489;51.404;5.474;2024-01-15T01:59:39;12.60;;;6.18;;
45784;SDS011;31489;51.404;5.474;2024-01-15T02:02:10;10.63;;;5.60;;
45784;SDS011;31489;51.404;5.474;2024-01-15T02:04:37;9.43;;;5.95;;
45784;SDS011;31489;51.404;5.474;2024-01-15T02:07:03;11.85;;;6.07;;
45784;SDS011;31489;51.404;5.474;2024-01-15T02:09:29;11.73;;;6.20;;
45784;SDS011;31489;51.404;5.474;2024-01-15T02:11:55;10.82;;;6.10;;
45784;SDS011;31489;51.404;5.474;2024-01-15T02:14:21;11.20;;;5.55;;
45784;SDS011;31489;51.404;5.474;2024-01-15T02:16:49;9.57;;;5.03;;
45784;SDS011;31489;51.404;5.474;2024-01-15T02:19:17;11.48;;;5.20;;
45784;SDS011;31489;51.404;5.474;2024-01-15T02:21:46;8.15;;;4.80;;
45784;SDS011;31489;51.404;5.474;2024-01-15T02:24:12;11.23;;;5.05;;
45784;SDS011;31489;51.404;5.474;2024-01-15T02:26:38;10.00;;;4.82;;
45784;SDS011;31489;51.404;5.474;2024-01-15T02:29:05;7.13;;;3.70;;
45784;SDS011;31489;51.404;5.474;2024-01-15T02:31:36;8.95;;;4.00;;
45784;SDS011;31489;51.404;5.474;2024-01-15T02:34:04;8.75;;;4.25;;
45784;SDS011;31489;51.404;5.474;2024-01-15T02:36:30;6.53;;;3.45;;
45784;SDS011;31489;51.404;5.474;2024-01-15T02:38:58;8.73;;;3.40;;
45784;SDS011;31489;51.404;5.474;2024-01-15T02:41:24;5.88;;;3.25;;
45784;SDS011;31489;51.404;5.474;2024-01-15T02:43:50;5.10;;;2.70;;
45784;SDS011;31489;51.404;5.474;2024-01-15T02:46:16;4.80;;;2.55;;
45784;SDS011;31489;51.404;5.474;2024-01-15T02:52:04;4.20;;;2.10;;
45784;SDS011;31489;51.404;5.474;2024-01-15T02:55:26;4.80;;;1.55;;
45784;SDS011;31489;51.404;5.474;2024-01-15T02:58:03;6.07;;;2.10;;
45784;SDS011;31489;51.404;5.474;2024-01-15T03:00:32;3.35;;;1.95;;
45784;SDS011;31489;51.404;5.474;2024-01-15T03:03:00;5.07;;;2.20;;
45784;SDS011;31489;51.404;5.474;2024-01-15T03:05:39;5.03;;;2.88;;
45784;SDS011;31489;51.404;5.474;2024-01-15T03:08:05;8.20;;;2.70;;
45784;SDS011;31489;51.404;5.474;2024-01-15T03:10:34;5.30;;;2.20;;
45784;SDS011;31489;51.404;5.474;2024-01-15T03:13:03;3.58;;;2.60;;
45784;SDS011;31489;51.404;5.474;2024-01-15T03:15:28;5.63;;;3.28;;
45784;SDS011;31489;51.404;5.474;2024-01-15T03:17:54;5.60;;;3.25;;
45784;SDS011;31489;51.404;5.474;2024-01-15T03:20:20;7.20;;;3.90;;
45784;SDS011;31489;51.404;5.474;2024-01-15T03:22:45;10.35;;;3.50;;
45784;SDS011;31489;51.404;5.474;2024-01-15T03:25:23;7.72;;;3.63;;
45784;SDS011;31489;51.404;5.474;2024-01-15T03:27:49;6.30;;;3.42;;
45784;SDS011;31489;51.404;5.474;2024-01-15T03:30:14;7.45;;;3.60;;
45784;SDS011;31489;51.404;5.474;2024-01-15T03:32:40;9.25;;;3.72;;
45784;SDS011;31489;51.404;5.474;2024-01-15T03:35:21;8.35;;;4.00;;
45784;SDS011;31489;51.404;5.474;2024-01-15T03:37:47;8.10;;;3.45;;
45784;SDS011;31489;51.404;5.474;2024-01-15T03:40:16;7.07;;;3.40;;
45784;SDS011;31489;51.404;5.474;2024-01-15T03:42:41;7.00;;;3.28;;
45784;SDS011;31489;51.404;5.474;2024-01-15T03:45:07;6.72;;;3.10;;
45784;SDS011;31489;51.404;5.474;2024-01-15T03:47:35;6.28;;;3.20;;
45784;SDS011;31489;51.404;5.474;2024-01-15T03:50:04;7.38;;;3.38;;
45784;SDS011;31489;51.404;5.474;2024-01-15T03:52:31;7.85;;;3.53;;
45784;SDS011;31489;51.404;5.474;2024-01-15T03:54:56;7.00;;;2.70;;
45784;SDS011;31489;51.404;5.474;2024-01-15T03:57:25;9.50;;;2.95;;
45784;SDS011;31489;51.404;5.474;2024-01-15T03:59:51;5.35;;;2.92;;
45784;SDS011;31489;51.404;5.474;2024-01-15T04:02:17;6.65;;;2.53;;
45784;SDS011;31489;51.404;5.474;2024-01-15T04:04:43;13.52;;;2.75;;
45784;SDS011;31489;51.404;5.474;2024-01-15T04:07:09;7.68;;;2.55;;
45784;SDS011;31489;51.404;5.474;2024-01-15T04:09:35;6.93;;;2.00;;
45784;SDS011;31489;51.404;5.474;2024-01-15T04:12:01;9.52;;;2.22;;
45784;SDS011;31489;51.404;5.474;2024-01-15T04:14:26;5.22;;;1.98;;
45784;SDS011;31489;51.404;5.474;2024-01-15T04:16:53;5.63;;;1.30;;
45784;SDS011;31489;51.404;5.474;2024-01-15T04:19:19;7.45;;;1.67;;
45784;SDS011;31489;51.404;5.474;2024-01-15T04:21:45;9.95;;;1.52;;
45784;SDS011;31489;51.404;5.474;2024-01-15T04:24:12;7.25;;;1.60;;
45784;SDS011;31489;51.404;5.474;2024-01-15T04:26:38;6.10;;;1.75;;
45784;SDS011;31489;51.404;5.474;2024-01-15T04:29:04;5.05;;;0.93;;
45784;SDS011;31489;51.404;5.474;2024-01-15T04:31:35;4.85;;;1.27;;
45784;SDS011;31489;51.404;5.474;2024-01-15T04:34:01;3.85;;;1.30;;
45784;SDS011;31489;51.404;5.474;2024-01-15T04:36:27;7.18;;;1.17;;
45784;SDS011;31489;51.404;5.474;2024-01-15T04:38:52;3.53;;;0.95;;
45784;SDS011;31489;51.404;5.474;2024-01-15T04:41:28;6.95;;;1.20;;
45784;SDS011;31489;51.404;5.474;2024-01-15T04:43:54;5.93;;;1.23;;
45784;SDS011;31489;51.404;5.474;2024-01-15T04:46:19;2.05;;;0.75;;
45784;SDS011;31489;51.404;5.474;2024-01-15T04:48:46;9.15;;;1.10;;
45784;SDS011;31489;51.404;5.474;2024-01-15T04:51:12;4.00;;;1.00;;
45784;SDS011;31489;51.404;5.474;2024-01-15T04:53:38;3.13;;;0.98;;
45784;SDS011;31489;51.404;5.474;2024-01-15T04:56:03;3.63;;;1.10;;
45784;SDS011;31489;51.404;5.474;2024-01-15T04:58:29;3.85;;;0.85;;
45784;SDS011;31489;51.404;5.474;2024-01-15T05:00:58;2.72;;;0.95;;
45784;SDS011;31489;51.404;5.474;2024-01-15T05:03:55;6.15;;;1.08;;
45784;SDS011;31489;51.404;5.474;2024-01-15T05:06:49;2.38;;;0.80;;
45784;SDS011;31489;51.404;5.474;2024-01-15T05:09:15;3.33;;;0.90;;
45784;SDS011;31489;51.404;5.474;2024-01-15T05:11:46;3.33;;;0.80;;
45784;SDS011;31489;51.404;5.474;2024-01-15T05:14:12;7.03;;;1.20;;
45784;SDS011;31489;51.404;5.474;2024-01-15T05:16:38;3.13;;;0.90;;
45784;SDS011;31489;51.404;5.474;2024-01-15T05:19:07;5.40;;;0.93;;
45784;SDS011;31489;51.404;5.474;2024-01-15T05:21:33;7.72;;;1.40;;
45784;SDS011;31489;51.404;5.474;2024-01-15T05:24:04;4.13;;;1.30;;
45784;SDS011;31489;51.404;5.474;2024-01-15T05:26:29;1.98;;;0.95;;
45784;SDS011;31489;51.404;5.474;2024-01-15T05:28:55;9.15;;;1.67;;
45784;SDS011;31489;51.404;5.474;2024-01-15T05:31:21;4.78;;;1.20;;
45784;SDS011;31489;51.404;5.474;2024-01-15T05:33:47;3.45;;;1.17;;
45784;SDS011;31489;51.404;5.474;2024-01-15T05:36:12;4.90;;;1.50;;
45784;SDS011;31489;51.404;5.474;2024-01-15T05:38:41;5.15;;;1.60;;
45784;SDS011;31489;51.404;5.474;2024-01-15T05:41:06;5.82;;;1.90;;
45784;SDS011;31489;51.404;5.474;2024-01-15T05:43:32;9.75;;;2.22;;
45784;SDS011;31489;51.404;5.474;2024-01-15T05:45:58;7.13;;;1.77;;
45784;SDS011;31489;51.404;5.474;2024-01-15T05:48:23;6.72;;;2.47;;
45784;SDS011;31489;51.404;5.474;2024-01-15T05:50:49;9.98;;;2.72;;
45784;SDS011;31489;51.404;5.474;2024-01-15T05:53:15;22.25;;;11.30;;
45784;SDS011;31489;51.404;5.474;2024-01-15T05:55:40;6.82;;;3.45;;
45784;SDS011;31489;51.404;5.474;2024-01-15T05:58:06;6.68;;;3.65;;
45784;SDS011;31489;51.404;5.474;2024-01-15T06:00:32;7.63;;;3.72;;
45784;SDS011;31489;51.404;5.474;2024-01-15T06:03:00;10.25;;;3.80;;
45784;SDS011;31489;51.404;5.474;2024-01-15T06:05:26;10.23;;;3.47;;
45784;SDS011;31489;51.404;5.474;2024-01-15T06:07:51;10.32;;;3.65;;
45784;SDS011;31489;51.404;5.474;2024-01-15T06:10:17;6.70;;;3.28;;
45784;SDS011;31489;51.404;5.474;2024-01-15T06:12:43;7.63;;;3.60;;
45784;SDS011;31489;51.404;5.474;2024-01-15T06:15:09;8.70;;;3.20;;
45784;SDS011;31489;51.404;5.474;2024-01-15T06:17:35;11.35;;;2.92;;
45784;SDS011;31489;51.404;5.474;2024-01-15T06:20:00;5.45;;;2.25;;
45784;SDS011;31489;51.404;5.474;2024-01-15T06:22:26;4.97;;;2.00;;
45784;SDS011;31489;51.404;5.474;2024-01-15T06:24:52;6.82;;;1.90;;
45784;SDS011;31489;51.404;5.474;2024-01-15T06:27:20;7.93;;;2.20;;
45784;SDS011;31489;51.404;5.474;2024-01-15T06:29:46;12.93;;;2.83;;
45784;SDS011;31489;51.404;5.474;2024-01-15T06:32:12;10.48;;;2.90;;
45784;SDS011;31489;51.404;5.474;2024-01-15T06:34:38;6.70;;;2.80;;
45784;SDS011;31489;51.404;5.474;2024-01-15T06:37:04;11.40;;;3.70;;
45784;SDS011;31489;51.404;5.474;2024-01-15T06:39:32;7.32;;;3.55;;
45784;SDS011;31489;51.404;5.474;2024-01-15T06:41:58;7.25;;;3.80;;
45784;SDS011;31489;51.404;5.474;2024-01-15T06:44:24;8.48;;;4.22;;
45784;SDS011;31489;51.404;5.474;2024-01-15T06:46:49;4.78;;;3.50;;
45784;SDS011;31489;51.404;5.474;2024-01-15T06:49:19;6.25;;;4.00;;
45784;SDS011;31489;51.404;5.474;2024-01-15T06:51:44;6.90;;;4.45;;
45784;SDS011;31489;51.404;5.474;2024-01-15T06:54:10;5.70;;;4.28;;
45784;SDS011;31489;51.404;5.474;2024-01-15T06:56:36;6.43;;;4.32;;
45784;SDS011;31489;51.404;5.474;2024-01-15T06:59:01;5.35;;;3.78;;
45784;SDS011;31489;51.404;5.474;2024-01-15T07:01:27;5.55;;;3.67;;
45784;SDS011;31489;51.404;5.474;2024-01-15T07:03:54;5.30;;;3.10;;
45784;SDS011;31489;51.404;5.474;2024-01-15T07:06:20;3.78;;;2.75;;
45784;SDS011;31489;51.404;5.474;2024-01-15T07:08:45;4.15;;;2.45;;
45784;SDS011;31489;51.404;5.474;2024-01-15T07:11:11;4.25;;;2.33;;
45784;SDS011;31489;51.404;5.474;2024-01-15T07:13:37;3.50;;;1.80;;
45784;SDS011;31489;51.404;5.474;2024-01-15T07:16:03;6.30;;;1.75;;
45784;SDS011;31489;51.404;5.474;2024-01-15T07:18:29;1.95;;;1.33;;
45784;SDS011;31489;51.404;5.474;2024-01-15T07:20:57;3.78;;;1.40;;
45784;SDS011;31489;51.404;5.474;2024-01-15T07:23:23;1.67;;;1.15;;
45784;SDS011;31489;51.404;5.474;2024-01-15T07:25:49;1.65;;;1.13;;
45784;SDS011;31489;51.404;5.474;2024-01-15T07:28:15;3.17;;;1.05;;
45784;SDS011;31489;51.404;5.474;2024-01-15T07:30:40;1.35;;;0.93;;
45784;SDS011;31489;51.404;5.474;2024-01-15T07:33:06;1.50;;;1.40;;
45784;SDS011;31489;51.404;5.474;2024-01-15T07:35:32;1.38;;;0.90;;
45784;SDS011;31489;51.404;5.474;2024-01-15T07:37:57;0.70;;;0.70;;
45784;SDS011;31489;51.404;5.474;2024-01-15T07:40:28;0.90;;;0.82;;
45784;SDS011;31489;51.404;5.474;2024-01-15T07:42:54;0.90;;;0.90;;
45784;SDS011;31489;51.404;5.474;2024-01-15T07:45:20;0.88;;;0.85;;
45784;SDS011;31489;51.404;5.474;2024-01-15T07:47:46;1.10;;;1.00;;
45784;SDS011;31489;51.404;5.474;2024-01-15T07:50:11;5.03;;;1.30;;
45784;SDS011;31489;51.404;5.474;2024-01-15T07:52:37;1.48;;;1.17;;
45784;SDS011;31489;51.404;5.474;2024-01-15T07:55:04;3.85;;;1.98;;
45784;SDS011;31489;51.404;5.474;2024-01-15T07:57:30;2.13;;;1.92;;
45784;SDS011;31489;51.404;5.474;2024-01-15T07:59:56;2.85;;;2.58;;
45784;SDS011;31489;51.404;5.474;2024-01-15T08:02:22;3.08;;;2.60;;
45784;SDS011;31489;51.404;5.474;2024-01-15T08:04:47;3.63;;;2.90;;
45784;SDS011;31489;51.404;5.474;2024-01-15T08:07:13;3.90;;;2.45;;
45784;SDS011;31489;51.404;5.474;2024-01-15T08:09:42;5.55;;;2.47;;
45784;SDS011;31489;51.404;5.474;2024-01-15T08:12:08;3.42;;;2.50;;
45784;SDS011;31489;51.404;5.474;2024-01-15T08:14:36;4.90;;;2.67;;
45784;SDS011;31489;51.404;5.474;2024-01-15T08:17:04;2.78;;;2.40;;
45784;SDS011;31489;51.404;5.474;2024-01-15T08:19:33;2.67;;;2.47;;
45784;SDS011;31489;51.404;5.474;2024-01-15T08:22:06;4.65;;;2.85;;
45784;SDS011;31489;51.404;5.474;2024-01-15T08:24:31;3.53;;;2.20;;
45784;SDS011;31489;51.404;5.474;2024-01-15T08:26:57;6.88;;;2.22;;
45784;SDS011;31489;51.404;5.474;2024-01-15T08:29:23;4.88;;;2.50;;
45784;SDS011;31489;51.404;5.474;2024-01-15T08:31:49;3.35;;;2.35;;
45784;SDS011;31489;51.404;5.474;2024-01-15T08:34:15;3.67;;;1.90;;
45784;SDS011;31489;51.404;5.474;2024-01-15T08:36:41;5.97;;;1.63;;
45784;SDS011;31489;51.404;5.474;2024-01-15T08:39:07;1.88;;;1.58;;
45784;SDS011;31489;51.404;5.474;2024-01-15T08:41:34;5.75;;;1.40;;
45784;SDS011;31489;51.404;5.474;2024-01-15T08:44:00;4.15;;;1.23;;
45784;SDS011;31489;51.404;5.474;2024-01-15T08:46:27;2.10;;;1.00;;
45784;SDS011;31489;51.404;5.474;2024-01-15T08:48:53;2.88;;;1.00;;
45784;SDS011;31489;51.404;5.474;2024-01-15T08:51:19;4.85;;;1.00;;
45784;SDS011;31489;51.404;5.474;2024-01-15T08:53:44;2.13;;;0.98;;
45784;SDS011;31489;51.404;5.474;2024-01-15T08:56:10;2.80;;;0.93;;
45784;SDS011;31489;51.404;5.474;2024-01-15T08:58:36;2.00;;;0.60;;
45784;SDS011;31489;51.404;5.474;2024-01-15T09:01:02;4.88;;;0.60;;
45784;SDS011;31489;51.404;5.474;2024-01-15T09:03:28;3.08;;;0.70;;
45784;SDS011;31489;51.404;5.474;2024-01-15T09:05:57;2.08;;;0.50;;
45784;SDS011;31489;51.404;5.474;2024-01-15T09:08:23;1.58;;;0.52;;
45784;SDS011;31489;51.404;5.474;2024-01-15T09:10:48;4.32;;;1.10;;
45784;SDS011;31489;51.404;5.474;2024-01-15T09:13:15;4.55;;;0.90;;
45784;SDS011;31489;51.404;5.474;2024-01-15T09:15:44;3.05;;;1.25;;
45784;SDS011;31489;51.404;5.474;2024-01-15T09:18:10;2.83;;;0.77;;
45784;SDS011;31489;51.404;5.474;2024-01-15T09:20:35;2.33;;;0.70;;
45784;SDS011;31489;51.404;5.474;2024-01-15T09:23:01;2.95;;;0.88;;
45784;SDS011;31489;51.404;5.474;2024-01-15T09:25:27;3.67;;;1.10;;
45784;SDS011;31489;51.404;5.474;2024-01-15T09:27:53;2.50;;;0.88;;
45784;SDS011;31489;51.404;5.474;2024-01-15T09:30:19;3.70;;;1.08;;
45784;SDS011;31489;51.404;5.474;2024-01-15T09:32:44;3.22;;;0.85;;
45784;SDS011;31489;51.404;5.474;2024-01-15T09:35:10;2.40;;;1.00;;
45784;SDS011;31489;51.404;5.474;2024-01-15T09:37:36;0.95;;;0.77;;
45784;SDS011;31489;51.404;5.474;2024-01-15T09:40:02;6.00;;;1.02;;
45784;SDS011;31489;51.404;5.474;2024-01-15T09:42:32;1.45;;;0.98;;
45784;SDS011;31489;51.404;5.474;2024-01-15T09:45:00;2.30;;;1.00;;
45784;SDS011;31489;51.404;5.474;2024-01-15T09:47:28;5.80;;;1.42;;
45784;SDS011;31489;51.404;5.474;2024-01-15T09:49:54;2.22;;;1.00;;
45784;SDS011;31489;51.404;5.474;2024-01-15T09:52:23;5.03;;;1.48;;
45784;SDS011;31489;51.404;5.474;2024-01-15T09:54:50;2.67;;;0.90;;
45784;SDS011;31489;51.404;5.474;2024-01-15T09:57:17;1.83;;;1.10;;
45784;SDS011;31489;51.404;5.474;2024-01-15T09:59:42;4.38;;;2.60;;
45784;SDS011;31489;51.404;5.474;2024-01-15T10:02:10;2.25;;;1.42;;
45784;SDS011;31489;51.404;5.474;2024-01-15T10:04:42;2.20;;;1.52;;
45784;SDS011;31489;51.404;5.474;2024-01-15T10:07:08;3.08;;;1.10;;
45784;SDS011;31489;51.404;5.474;2024-01-15T10:09:34;2.97;;;1.42;;
45784;SDS011;31489;51.404;5.474;2024-01-15T10:12:00;1.70;;;1.27;;
45784;SDS011;31489;51.404;5.474;2024-01-15T10:14:26;1.88;;;1.55;;
45784;SDS011;31489;51.404;5.474;2024-01-15T10:16:52;4.20;;;1.35;;
45784;SDS011;31489;51.404;5.474;2024-01-15T10:19:18;2.20;;;1.17;;
45784;SDS011;31489;51.404;5.474;2024-01-15T10:21:43;3.22;;;1.40;;
45784;SDS011;31489;51.404;5.474;2024-01-15T10:24:11;4.53;;;1.58;;
45784;SDS011;31489;51.404;5.474;2024-01-15T10:26:37;4.00;;;1.80;;
45784;SDS011;31489;51.404;5.474;2024-01-15T10:29:03;5.97;;;1.52;;
45784;SDS011;31489;51.404;5.474;2024-01-15T10:31:28;5.75;;;1.92;;
45784;SDS011;31489;51.404;5.474;2024-01-15T10:34:00;5.22;;;1.80;;
45784;SDS011;31489;51.404;5.474;2024-01-15T10:36:36;3.13;;;1.70;;
45784;SDS011;31489;51.404;5.474;2024-01-15T10:39:06;1.98;;;1.70;;
45784;SDS011;31489;51.404;5.474;2024-01-15T10:41:32;3.42;;;2.35;;
45784;SDS011;31489;51.404;5.474;2024-01-15T10:43:58;5.20;;;2.47;;
45784;SDS011;31489;51.404;5.474;2024-01-15T10:46:26;6.82;;;2.45;;
45784;SDS011;31489;51.404;5.474;2024-01-15T10:48:53;4.85;;;2.65;;
45784;SDS011;31489;51.404;5.474;2024-01-15T10:51:19;6.50;;;2.47;;
45784;SDS011;31489;51.404;5.474;2024-01-15T10:53:44;4.85;;;2.70;;
45784;SDS011;31489;51.404;5.474;2024-01-15T10:56:11;8.30;;;3.15;;
45784;SDS011;31489;51.404;5.474;2024-01-15T10:58:39;6.82;;;3.35;;
45784;SDS011;31489;51.404;5.474;2024-01-15T11:01:05;6.97;;;3.03;;
45784;SDS011;31489;51.404;5.474;2024-01-15T11:03:31;5.38;;;3.28;;
45784;SDS011;31489;51.404;5.474;2024-01-15T11:05:57;5.75;;;3.08;;
45784;SDS011;31489;51.404;5.474;2024-01-15T11:08:24;5.32;;;2.60;;
45784;SDS011;31489;51.404;5.474;2024-01-15T11:10:50;6.65;;;2.80;;
45784;SDS011;31489;51.404;5.474;2024-01-15T11:15:58;7.07;;;2.20;;
45784;SDS011;31489;51.404;5.474;2024-01-15T11:18:29;4.50;;;2.00;;
45784;SDS011;31489;51.404;5.474;2024-01-15T11:26:27;1.40;;;1.30;;
45784;SDS011;31489;51.404;5.474;2024-01-15T11:28:54;3.88;;;1.45;;
45784;SDS011;31489;51.404;5.474;2024-01-15T11:31:25;3.33;;;1.77;;
45784;SDS011;31489;51.404;5.474;2024-01-15T11:34:06;2.28;;;1.30;;
45784;SDS011;31489;51.404;5.474;2024-01-15T11:41:55;1.58;;;0.85;;
45784;SDS011;31489;51.404;5.474;2024-01-15T11:44:30;4.40;;;0.93;;
45784;SDS011;31489;51.404;5.474;2024-01-15T11:47:00;1.23;;;0.60;;
45784;SDS011;31489;51.404;5.474;2024-01-15T11:52:22;1.48;;;0.85;;
45784;SDS011;31489;51.404;5.474;2024-01-15T11:57:45;2.50;;;0.70;;
45784;SDS011;31489;51.404;5.474;2024-01-15T12:00:17;2.17;;;0.90;;
45784;SDS011;31489;51.404;5.474;2024-01-15T12:02:46;2.88;;;0.90;;
45784;SDS011;31489;51.404;5.474;2024-01-15T12:05:15;2.42;;;1.00;;
45784;SDS011;31489;51.404;5.474;2024-01-15T12:07:46;1.25;;;0.73;;
45784;SDS011;31489;51.404;5.474;2024-01-15T12:10:14;1.88;;;1.20;;
45784;SDS011;31489;51.404;5.474;2024-01-15T12:15:22;2.03;;;0.90;;
45784;SDS011;31489;51.404;5.474;2024-01-15T12:17:54;4.68;;;1.10;;
45784;SDS011;31489;51.404;5.474;2024-01-15T12:20:22;4.55;;;1.20;;
45784;SDS011;31489;51.404;5.474;2024-01-15T12:22:49;3.45;;;1.20;;
45784;SDS011;31489;51.404;5.474;2024-01-15T12:25:15;4.57;;;0.88;;
45784;SDS011;31489;51.404;5.474;2024-01-15T12:27:41;2.15;;;0.80;;
45784;SDS011;31489;51.404;5.474;2024-01-15T12:30:07;2.42;;;1.25;;
45784;SDS011;31489;51.404;5.474;2024-01-15T12:32:36;1.80;;;0.80;;
45784;SDS011;31489;51.404;5.474;2024-01-15T12:35:02;1.35;;;0.75;;
45784;SDS011;31489;51.404;5.474;2024-01-15T12:37:29;0.95;;;0.90;;
45784;SDS011;31489;51.404;5.474;2024-01-15T12:39:55;2.90;;;1.05;;
45784;SDS011;31489;51.404;5.474;2024-01-15T12:42:21;1.27;;;0.80;;
45784;SDS011;31489;51.404;5.474;2024-01-15T12:44:47;1.65;;;0.95;;
45784;SDS011;31489;51.404;5.474;2024-01-15T12:47:15;1.42;;;0.77;;
45784;SDS011;31489;51.404;5.474;2024-01-15T12:49:46;1.27;;;0.60;;
45784;SDS011;31489;51.404;5.474;2024-01-15T12:52:15;3.80;;;0.77;;
45784;SDS011;31489;51.404;5.474;2024-01-15T12:54:44;0.73;;;0.63;;
45784;SDS011;31489;51.404;5.474;2024-01-15T12:57:09;1.10;;;0.60;;
45784;SDS011;31489;51.404;5.474;2024-01-15T12:59:35;1.17;;;0.80;;
45784;SDS011;31489;51.404;5.474;2024-01-15T13:02:01;1.20;;;0.82;;
45784;SDS011;31489;51.404;5.474;2024-01-15T13:04:29;1.20;;;0.60;;
45784;SDS011;31489;51.404;5.474;2024-01-15T13:06:57;1.33;;;0.73;;
45784;SDS011;31489;51.404;5.474;2024-01-15T13:09:23;2.63;;;0.88;;
45784;SDS011;31489;51.404;5.474;2024-01-15T13:12:02;9.85;;;6.57;;
45784;SDS011;31489;51.404;5.474;2024-01-15T13:14:28;5.97;;;2.72;;
45784;SDS011;31489;51.404;5.474;2024-01-15T13:16:56;2.95;;;1.15;;
45784;SDS011;31489;51.404;5.474;2024-01-15T13:19:23;6.07;;;1.40;;
45784;SDS011;31489;51.404;5.474;2024-01-15T13:21:59;1.98;;;0.77;;
45784;SDS011;31489;51.404;5.474;2024-01-15T13:24:25;3.05;;;0.80;;
45784;SDS011;31489;51.404;5.474;2024-01-15T13:26:51;1.75;;;0.90;;
45784;SDS011;31489;51.404;5.474;2024-01-15T13:29:19;0.60;;;0.60;;
45784;SDS011;31489;51.404;5.474;2024-01-15T13:31:48;3.15;;;0.85;;
45784;SDS011;31489;51.404;5.474;2024-01-15T13:34:16;1.23;;;0.80;;
45784;SDS011;31489;51.404;5.474;2024-01-15T13:36:48;3.75;;;0.90;;
45784;SDS011;31489;51.404;5.474;2024-01-15T13:39:15;0.98;;;0.80;;
45784;SDS011;31489;51.404;5.474;2024-01-15T13:41:45;10.15;;;5.72;;
45784;SDS011;31489;51.404;5.474;2024-01-15T13:44:14;2.55;;;1.58;;
45784;SDS011;31489;51.404;5.474;2024-01-15T13:46:40;2.63;;;1.50;;
45784;SDS011;31489;51.404;5.474;2024-01-15T13:49:06;4.00;;;1.35;;
45784;SDS011;31489;51.404;5.474;2024-01-15T13:51:34;12.95;;;5.43;;
45784;SDS011;31489;51.404;5.474;2024-01-15T13:54:01;2.97;;;2.47;;
45784;SDS011;31489;51.404;5.474;2024-01-15T13:56:31;2.55;;;1.60;;
45784;SDS011;31489;51.404;5.474;2024-01-15T13:58:58;6.28;;;1.92;;
45784;SDS011;31489;51.404;5.474;2024-01-15T14:01:27;3.92;;;2.08;;
45784;SDS011;31489;51.404;5.474;2024-01-15T14:03:53;4.85;;;1.58;;
45784;SDS011;31489;51.404;5.474;2024-01-15T14:06:19;4.28;;;1.60;;
45784;SDS011;31489;51.404;5.474;2024-01-15T14:08:45;4.78;;;2.10;;
45784;SDS011;31489;51.404;5.474;2024-01-15T14:11:11;4.38;;;1.40;;
45784;SDS011;31489;51.404;5.474;2024-01-15T14:13:37;2.33;;;1.23;;
45784;SDS011;31489;51.404;5.474;2024-01-15T14:16:06;6.85;;;1.48;;
45784;SDS011;31489;51.404;5.474;2024-01-15T14:18:37;2.00;;;1.00;;
45784;SDS011;31489;51.404;5.474;2024-01-15T14:21:02;4.10;;;1.17;;
45784;SDS011;31489;51.404;5.474;2024-01-15T14:23:31;2.47;;;1.20;;
45784;SDS011;31489;51.404;5.474;2024-01-15T14:25:57;4.25;;;1.30;;
45784;SDS011;31489;51.404;5.474;2024-01-15T14:28:25;3.10;;;1.10;;
45784;SDS011;31489;51.404;5.474;2024-01-15T14:30:51;3.08;;;1.15;;
45784;SDS011;31489;51.404;5.474;2024-01-15T14:33:17;4.20;;;1.15;;
45784;SDS011;31489;51.404;5.474;2024-01-15T14:35:46;3.83;;;1.35;;
45784;SDS011;31489;51.404;5.474;2024-01-15T14:38:11;3.40;;;1.00;;
45784;SDS011;31489;51.404;5.474;2024-01-15T14:40:37;4.90;;;1.23;;
45784;SDS011;31489;51.404;5.474;2024-01-15T14:43:03;4.68;;;1.10;;
45784;SDS011;31489;51.404;5.474;2024-01-15T14:45:34;4.10;;;1.20;;
45784;SDS011;31489;51.404;5.474;2024-01-15T14:48:02;5.63;;;1.40;;
45784;SDS011;31489;51.404;5.474;2024-01-15T14:50:36;4.13;;;1.20;;
45784;SDS011;31489;51.404;5.474;2024-01-15T14:53:10;5.75;;;1.73;;
45784;SDS011;31489;51.404;5.474;2024-01-15T14:55:47;5.65;;;1.40;;
45784;SDS011;31489;51.404;5.474;2024-01-15T14:58:26;4.57;;;1.23;;
45784;SDS011;31489;51.404;5.474;2024-01-15T15:00:54;6.82;;;1.30;;
45784;SDS011;31489;51.404;5.474;2024-01-15T15:06:07;4.80;;;1.10;;
45784;SDS011;31489;51.404;5.474;2024-01-15T15:08:45;5.53;;;1.45;;
45784;SDS011;31489;51.404;5.474;2024-01-15T15:11:16;4.03;;;1.20;;
45784;SDS011;31489;51.404;5.474;2024-01-15T15:13:44;3.78;;;1.17;;
45784;SDS011;31489;51.404;5.474;2024-01-15T15:16:14;3.15;;;1.30;;
45784;SDS011;31489;51.404;5.474;2024-01-15T15:18:42;7.25;;;1.60;;